<?xml version="1.0" encoding="UTF-8" standalone="no" ?>
<gpx xmlns="http://www.topografix.com/GPX/1/1" xmlns:xsi="http://www.w3.org/2001/XMLSchema-instance" xsi:schemaLocation="http://www.topografix.com/GPX/1/1 http://www.topografix.com/GPX/1/1/gpx.xsd" version="1.1" creator="VisuGPX - https://www.visugpx.com">
  <metadata>
    <name>Reprise Course a pied</name>
    <desc><![CDATA[Petite Sortie Course a pied.
Une petite cote et une super vue sur la mer :!]]></desc>
  </metadata>
  <trk>
    <name><![CDATA[cagnes.Philippe. 20130316]]></name>
    <desc><![CDATA[<h1>OruxMaps</h1><br /><hr align="center" width="480" style="height: 2px; width: 517px"/><h2>Nom: cagnes.Philippe. 20130316</h2><br /><p>Temps de départ: 03/16/2013 16:08</p><p>Temps d'arrivée: 03/16/2013 17:08</p><p>Distance: 8,7 km (01:00)</p><p>Temps déplacement: 00:58</p><p>Vitesse moyenne: 8,7 km/h</p><p>Vitesse moyenne: 9 km/h</p><p>Vitess Max.: 10,8 km/h</p><p>Altitude minimale: 0 m</p><p>Altitude maximale: 37 m</p><p>Vitesse d'élévation: 102,2 m/h</p><p>Vitesse de descente: -106,2 m/h</p><p>Gain Altitude: 20 m</p><p>Perte Altitude: -35 m</p><p>Temps d'élévation: 00:12</p><p>Temps de descente: 00:20</p><hr align="center" width="480" style="height: 2px; width: 517px"/>]]></desc>
    <trkseg>
      <trkpt lat="43.67081" lon="7.16357">
        <ele>35.93</ele>
        <time>2013-03-16T15:08:31Z</time>
      </trkpt>
      <trkpt lat="43.66901" lon="7.16592">
        <ele>35.74</ele>
        <time>2013-03-16T15:10:31Z</time>
      </trkpt>
      <trkpt lat="43.66685" lon="7.16841">
        <ele>37.6</ele>
        <time>2013-03-16T15:12:31Z</time>
      </trkpt>
      <trkpt lat="43.6648" lon="7.17085">
        <ele>35.24</ele>
        <time>2013-03-16T15:14:31Z</time>
      </trkpt>
      <trkpt lat="43.66247" lon="7.16926">
        <ele>33.73</ele>
        <time>2013-03-16T15:16:31Z</time>
      </trkpt>
      <trkpt lat="43.66013" lon="7.16955">
        <ele>28.84</ele>
        <time>2013-03-16T15:18:31Z</time>
      </trkpt>
      <trkpt lat="43.65801" lon="7.1694">
        <ele>21.67</ele>
        <time>2013-03-16T15:20:31Z</time>
      </trkpt>
      <trkpt lat="43.6573" lon="7.16644">
        <ele>19.55</ele>
        <time>2013-03-16T15:22:31Z</time>
      </trkpt>
      <trkpt lat="43.65616" lon="7.16282">
        <ele>16.96</ele>
        <time>2013-03-16T15:24:31Z</time>
      </trkpt>
      <trkpt lat="43.65476" lon="7.15918">
        <ele>12.01</ele>
        <time>2013-03-16T15:26:31Z</time>
      </trkpt>
      <trkpt lat="43.65329" lon="7.15598">
        <ele>9.8</ele>
        <time>2013-03-16T15:28:31Z</time>
      </trkpt>
      <trkpt lat="43.65135" lon="7.15304">
        <ele>8.9</ele>
        <time>2013-03-16T15:30:31Z</time>
      </trkpt>
      <trkpt lat="43.64917" lon="7.15029">
        <ele>5.22</ele>
        <time>2013-03-16T15:32:31Z</time>
      </trkpt>
      <trkpt lat="43.64687" lon="7.14799">
        <ele>1.96</ele>
        <time>2013-03-16T15:34:31Z</time>
      </trkpt>
      <trkpt lat="43.64456" lon="7.14582">
        <ele>-0.24</ele>
        <time>2013-03-16T15:36:31Z</time>
      </trkpt>
      <trkpt lat="43.64335" lon="7.14444">
        <ele>-0.14</ele>
        <time>2013-03-16T15:38:31Z</time>
      </trkpt>
      <trkpt lat="43.64558" lon="7.14668">
        <ele>0.94</ele>
        <time>2013-03-16T15:40:31Z</time>
      </trkpt>
      <trkpt lat="43.64794" lon="7.14892">
        <ele>1</ele>
        <time>2013-03-16T15:42:31Z</time>
      </trkpt>
      <trkpt lat="43.65007" lon="7.15144">
        <ele>0.54</ele>
        <time>2013-03-16T15:44:31Z</time>
      </trkpt>
      <trkpt lat="43.65207" lon="7.15407">
        <ele>3.45</ele>
        <time>2013-03-16T15:46:31Z</time>
      </trkpt>
      <trkpt lat="43.65384" lon="7.15709">
        <ele>4.38</ele>
        <time>2013-03-16T15:48:31Z</time>
      </trkpt>
      <trkpt lat="43.65524" lon="7.16042">
        <ele>3.08</ele>
        <time>2013-03-16T15:50:31Z</time>
      </trkpt>
      <trkpt lat="43.6565" lon="7.16373">
        <ele>6.36</ele>
        <time>2013-03-16T15:52:31Z</time>
      </trkpt>
      <trkpt lat="43.65757" lon="7.16736">
        <ele>6.81</ele>
        <time>2013-03-16T15:54:31Z</time>
      </trkpt>
      <trkpt lat="43.65788" lon="7.16939">
        <ele>5.15</ele>
        <time>2013-03-16T15:56:31Z</time>
      </trkpt>
      <trkpt lat="43.66027" lon="7.16948">
        <ele>8.91</ele>
        <time>2013-03-16T15:58:31Z</time>
      </trkpt>
      <trkpt lat="43.6625" lon="7.16925">
        <ele>14.47</ele>
        <time>2013-03-16T16:00:31Z</time>
      </trkpt>
      <trkpt lat="43.66466" lon="7.17086">
        <ele>17.15</ele>
        <time>2013-03-16T16:02:31Z</time>
      </trkpt>
      <trkpt lat="43.66665" lon="7.16849">
        <ele>19.41</ele>
        <time>2013-03-16T16:04:31Z</time>
      </trkpt>
      <trkpt lat="43.66875" lon="7.16605">
        <ele>20.6</ele>
        <time>2013-03-16T16:06:31Z</time>
      </trkpt>
      <trkpt lat="43.67072" lon="7.16371">
        <ele>22.49</ele>
        <time>2013-03-16T16:08:31Z</time>
      </trkpt>
    </trkseg>
  </trk>
</gpx>